sensor_id;sensor_type;location;lat;lon;timestamp;pressure;altitude;pressure_sealevel;temperature;humidity
44751;BME280;30477;48.224;11.470;2023-05-01T00:01:04;95937.00;;;9.91;58.42
44751;BME280;30477;48.224;11.470;2023-05-01T00:03:32;95930.06;;;9.92;58.77
44751;BME280;30477;48.224;11.470;2023-05-01T00:06:02;95928.56;;;9.89;58.85
44751;BME280;30477;48.224;11.470;2023-05-01T00:08:28;95922.56;;;9.89;58.85
44751;BME280;30477;48.224;11.470;2023-05-01T00:10:54;95918.63;;;9.85;58.73
44751;BME280;30477;48.224;11.470;2023-05-01T00:13:20;95923.41;;;9.80;58.87
44751;BME280;30477;48.224;11.470;2023-05-01T00:15:47;95918.22;;;9.80;58.88
44751;BME280;30477;48.224;11.470;2023-05-01T00:18:13;95913.34;;;9.77;58.94
44751;BME280;30477;48.224;11.470;2023-05-01T00:20:38;95913.75;;;9.72;59.07
44751;BME280;30477;48.224;11.470;2023-05-01T00:23:03;95914.97;;;9.68;59.30
44751;BME280;30477;48.224;11.470;2023-05-01T00:25:29;95908.88;;;9.69;59.19
44751;BME280;30477;48.224;11.470;2023-05-01T00:27:55;95903.69;;;9.59;59.33
44751;BME280;30477;48.224;11.470;2023-05-01T00:30:21;95909.28;;;9.64;59.59
44751;BME280;30477;48.224;11.470;2023-05-01T00:32:46;95894.31;;;9.58;59.55
44751;BME280;30477;48.224;11.470;2023-05-01T00:35:11;95896.91;;;9.58;59.57
44751;BME280;30477;48.224;11.470;2023-05-01T00:37:37;95899.50;;;9.58;59.67
44751;BME280;30477;48.224;11.470;2023-05-01T00:40:03;95890.25;;;9.55;59.82
44751;BME280;30477;48.224;11.470;2023-05-01T00:42:33;95887.13;;;9.52;59.73
44751;BME280;30477;48.224;11.470;2023-05-01T00:44:59;95893.53;;;9.48;59.93
44751;BME280;30477;48.224;11.470;2023-05-01T00:47:24;95888.78;;;9.43;59.97
44751;BME280;30477;48.224;11.470;2023-05-01T00:49:49;95896.78;;;9.50;60.08
44751;BME280;30477;48.224;11.470;2023-05-01T00:52:16;95888.06;;;9.51;60.01
44751;BME280;30477;48.224;11.470;2023-05-01T00:54:41;95884.53;;;9.52;59.95
44751;BME280;30477;48.224;11.470;2023-05-01T00:57:07;95889.72;;;9.52;59.99
44751;BME280;30477;48.224;11.470;2023-05-01T00:59:33;95893.53;;;9.48;60.15
44751;BME280;30477;48.224;11.470;2023-05-01T01:01:58;95887.50;;;9.57;60.16
44751;BME280;30477;48.224;11.470;2023-05-01T01:04:24;95898.13;;;9.54;60.01
44751;BME280;30477;48.224;11.470;2023-05-01T01:07:10;95886.16;;;9.53;60.30
44751;BME280;30477;48.224;11.470;2023-05-01T01:15:39;95887.00;;;9.34;60.55
44751;BME280;30477;48.224;11.470;2023-05-01T01:18:14;95886.47;;;9.30;60.84
44751;BME280;30477;48.224;11.470;2023-05-01T01:20:49;95878.03;;;9.28;60.93
44751;BME280;30477;48.224;11.470;2023-05-01T01:34:34;95864.16;;;9.10;61.53
44751;BME280;30477;48.224;11.470;2023-05-01T01:37:22;95862.13;;;9.04;61.68
44751;BME280;30477;48.224;11.470;2023-05-01T01:42:37;95859.00;;;8.90;62.10
44751;BME280;30477;48.224;11.470;2023-05-01T01:45:10;95854.66;;;8.91;62.19
44751;BME280;30477;48.224;11.470;2023-05-01T01:47:39;95857.34;;;8.89;62.14
44751;BME280;30477;48.224;11.470;2023-05-01T01:50:06;95849.91;;;8.86;62.25
44751;BME280;30477;48.224;11.470;2023-05-01T01:52:35;95850.59;;;8.88;62.19
44751;BME280;30477;48.224;11.470;2023-05-01T01:55:04;95842.41;;;8.83;62.50
44751;BME280;30477;48.224;11.470;2023-05-01T01:57:32;95845.66;;;8.85;62.36
44751;BME280;30477;48.224;11.470;2023-05-01T01:59:59;95850.84;;;8.85;62.18
44751;BME280;30477;48.224;11.470;2023-05-01T02:02:26;95839.56;;;8.86;62.63
44751;BME280;30477;48.224;11.470;2023-05-01T02:04:53;95837.00;;;8.86;62.61
44751;BME280;30477;48.224;11.470;2023-05-01T02:07:21;95839.56;;;8.86;62.44
44751;BME280;30477;48.224;11.470;2023-05-01T02:09:48;95832.22;;;8.82;62.74
44751;BME280;30477;48.224;11.470;2023-05-01T02:12:15;95832.09;;;8.73;62.62
44751;BME280;30477;48.224;11.470;2023-05-01T02:14:41;95829.78;;;8.80;63.18
44751;BME280;30477;48.224;11.470;2023-05-01T02:17:08;95831.53;;;8.80;62.53
44751;BME280;30477;48.224;11.470;2023-05-01T02:19:37;95828.00;;;8.81;62.63
44751;BME280;30477;48.224;11.470;2023-05-01T02:22:04;95833.72;;;8.74;62.75
44751;BME280;30477;48.224;11.470;2023-05-01T02:24:31;95827.47;;;8.77;62.83
44751;BME280;30477;48.224;11.470;2023-05-01T02:27:12;95830.56;;;8.71;62.71
44751;BME280;30477;48.224;11.470;2023-05-01T02:29:39;95832.47;;;8.69;62.88
44751;BME280;30477;48.224;11.470;2023-05-01T02:32:04;95830.56;;;8.71;63.25
44751;BME280;30477;48.224;11.470;2023-05-01T02:34:33;95821.22;;;8.70;63.05
44751;BME280;30477;48.224;11.470;2023-05-01T02:36:58;95824.72;;;8.69;63.19
44751;BME280;30477;48.224;11.470;2023-05-01T02:39:24;95816.88;;;8.70;63.10
44751;BME280;30477;48.224;11.470;2023-05-01T02:41:51;95823.50;;;8.73;63.22
44751;BME280;30477;48.224;11.470;2023-05-01T02:44:19;95817.16;;;8.67;63.05
44751;BME280;30477;48.224;11.470;2023-05-01T02:46:46;95812.00;;;8.67;63.07
44751;BME280;30477;48.224;11.470;2023-05-01T02:49:13;95802.03;;;8.63;63.37
44751;BME280;30477;48.224;11.470;2023-05-01T02:51:40;95804.91;;;8.60;63.10
44751;BME280;30477;48.224;11.470;2023-05-01T02:54:06;95803.81;;;8.52;63.46
44751;BME280;30477;48.224;11.470;2023-05-01T02:56:32;95803.81;;;8.52;63.48
44751;BME280;30477;48.224;11.470;2023-05-01T02:58:57;95800.56;;;8.50;63.52
44751;BME280;30477;48.224;11.470;2023-05-01T03:01:23;95797.84;;;8.42;63.59
44751;BME280;30477;48.224;11.470;2023-05-01T03:03:48;95797.25;;;8.39;63.80
44751;BME280;30477;48.224;11.470;2023-05-01T03:06:13;95805.78;;;8.29;63.73
44751;BME280;30477;48.224;11.470;2023-05-01T03:08:39;95805.34;;;8.24;63.84
44751;BME280;30477;48.224;11.470;2023-05-01T03:11:05;95812.97;;;8.26;64.10
44751;BME280;30477;48.224;11.470;2023-05-01T03:13:31;95808.91;;;8.33;64.23
44751;BME280;30477;48.224;11.470;2023-05-01T03:15:56;95803.50;;;8.36;64.32
44751;BME280;30477;48.224;11.470;2023-05-01T03:18:22;95811.75;;;8.30;64.04
44751;BME280;30477;48.224;11.470;2023-05-01T03:20:54;95809.00;;;8.22;63.99
44751;BME280;30477;48.224;11.470;2023-05-01T03:23:21;95805.63;;;8.21;64.30
44751;BME280;30477;48.224;11.470;2023-05-01T03:25:47;95796.00;;;8.23;64.08
44751;BME280;30477;48.224;11.470;2023-05-01T03:28:12;95795.84;;;8.15;64.12
44751;BME280;30477;48.224;11.470;2023-05-01T03:30:38;95792.81;;;8.00;64.51
44751;BME280;30477;48.224;11.470;2023-05-01T03:33:03;95802.00;;;7.93;64.61
44751;BME280;30477;48.224;11.470;2023-05-01T03:35:29;95796.84;;;7.93;64.89
44751;BME280;30477;48.224;11.470;2023-05-01T03:37:54;95799.03;;;7.98;65.09
44751;BME280;30477;48.224;11.470;2023-05-01T03:40:20;95796.47;;;8.07;65.20
44751;BME280;30477;48.224;11.470;2023-05-01T03:42:45;95795.56;;;8.08;65.34
44751;BME280;30477;48.224;11.470;2023-05-01T03:45:11;95789.31;;;8.11;65.62
44751;BME280;30477;48.224;11.470;2023-05-01T03:47:36;95788.94;;;8.25;65.31
44751;BME280;30477;48.224;11.470;2023-05-01T03:50:02;95789.31;;;8.21;64.99
44751;BME280;30477;48.224;11.470;2023-05-01T03:52:27;95795.69;;;8.17;65.23
44751;BME280;30477;48.224;11.470;2023-05-01T03:54:53;95794.34;;;8.22;65.05
44751;BME280;30477;48.224;11.470;2023-05-01T03:57:18;95790.28;;;8.20;64.99
44751;BME280;30477;48.224;11.470;2023-05-01T03:59:47;95796.38;;;8.19;65.01
44751;BME280;30477;48.224;11.470;2023-05-01T04:02:12;95782.28;;;8.23;64.93
44751;BME280;30477;48.224;11.470;2023-05-01T04:04:38;95780.66;;;8.22;65.09
44751;BME280;30477;48.224;11.470;2023-05-01T04:07:03;95784.00;;;8.12;65.04
44751;BME280;30477;48.224;11.470;2023-05-01T04:09:29;95780.34;;;8.05;65.68
44751;BME280;30477;48.224;11.470;2023-05-01T04:11:55;95781.19;;;8.16;65.86
44751;BME280;30477;48.224;11.470;2023-05-01T04:14:20;95775.97;;;8.06;65.81
44751;BME280;30477;48.224;11.470;2023-05-01T04:16:46;95769.34;;;8.03;65.86
44751;BME280;30477;48.224;11.470;2023-05-01T04:19:11;95777.06;;;8.03;65.83
44751;BME280;30477;48.224;11.470;2023-05-01T04:21:37;95778.97;;;8.01;66.04
44751;BME280;30477;48.224;11.470;2023-05-01T04:24:03;95780.34;;;8.05;65.94
44751;BME280;30477;48.224;11.470;2023-05-01T04:26:28;95779.53;;;8.05;66.01
44751;BME280;30477;48.224;11.470;2023-05-01T04:28:53;95770.59;;;8.09;66.04
44751;BME280;30477;48.224;11.470;2023-05-01T04:31:19;95771.81;;;8.14;66.05
44751;BME280;30477;48.224;11.470;2023-05-01T04:33:44;95774.53;;;8.23;66.04
44751;BME280;30477;48.224;11.470;2023-05-01T04:36:10;95772.63;;;8.25;65.83
44751;BME280;30477;48.224;11.470;2023-05-01T04:38:35;95777.00;;;8.24;65.89
44751;BME280;30477;48.224;11.470;2023-05-01T04:41:01;95773.88;;;8.30;65.99
44751;BME280;30477;48.224;11.470;2023-05-01T04:43:26;95778.47;;;8.27;66.06
44751;BME280;30477;48.224;11.470;2023-05-01T04:45:52;95771.59;;;8.27;65.95
44751;BME280;30477;48.224;11.470;2023-05-01T04:48:18;95776.88;;;8.36;65.93
44751;BME280;30477;48.224;11.470;2023-05-01T04:50:43;95780.97;;;8.38;65.96
44751;BME280;30477;48.224;11.470;2023-05-01T04:53:09;95784.25;;;8.50;66.20
44751;BME280;30477;48.224;11.470;2023-05-01T04:55:35;95784.00;;;8.53;65.91
44751;BME280;30477;48.224;11.470;2023-05-01T04:58:00;95777.47;;;8.59;66.33
44751;BME280;30477;48.224;11.470;2023-05-01T05:00:28;95774.38;;;8.74;66.25
44751;BME280;30477;48.224;11.470;2023-05-01T05:02:53;95777.50;;;8.78;66.00
44751;BME280;30477;48.224;11.470;2023-05-01T05:05:18;95772.06;;;8.91;66.19
44751;BME280;30477;48.224;11.470;2023-05-01T05:07:44;95769.88;;;8.96;65.49
44751;BME280;30477;48.224;11.470;2023-05-01T05:10:09;95774.75;;;9.09;65.72
44751;BME280;30477;48.224;11.470;2023-05-01T05:12:34;95779.09;;;9.18;65.42
44751;BME280;30477;48.224;11.470;2023-05-01T05:15:00;95783.53;;;9.35;65.47
44751;BME280;30477;48.224;11.470;2023-05-01T05:17:25;95778.75;;;9.41;64.89
44751;BME280;30477;48.224;11.470;2023-05-01T05:19:51;95777.56;;;9.25;64.55
44751;BME280;30477;48.224;11.470;2023-05-01T05:22:16;95788.72;;;9.26;64.75
44751;BME280;30477;48.224;11.470;2023-05-01T05:24:41;95786.56;;;9.31;64.98
44751;BME280;30477;48.224;11.470;2023-05-01T05:27:06;95785.56;;;9.42;64.81
44751;BME280;30477;48.224;11.470;2023-05-01T05:29:32;95780.94;;;9.45;64.59
44751;BME280;30477;48.224;11.470;2023-05-01T05:31:59;95786.59;;;9.68;64.63
44751;BME280;30477;48.224;11.470;2023-05-01T05:34:24;95788.72;;;9.83;64.38
44751;BME280;30477;48.224;11.470;2023-05-01T05:36:50;95787.75;;;10.11;63.91
44751;BME280;30477;48.224;11.470;2023-05-01T05:39:16;95786.75;;;10.32;63.43
44751;BME280;30477;48.224;11.470;2023-05-01T05:41:41;95786.34;;;10.54;62.81
44751;BME280;30477;48.224;11.470;2023-05-01T05:44:06;95784.72;;;10.71;62.26
44751;BME280;30477;48.224;11.470;2023-05-01T05:46:32;95802.06;;;10.79;62.55
44751;BME280;30477;48.224;11.470;2023-05-01T05:48:57;95786.78;;;10.50;60.91
44751;BME280;30477;48.224;11.470;2023-05-01T05:51:22;95794.69;;;10.48;61.30
44751;BME280;30477;48.224;11.470;2023-05-01T05:53:48;95801.00;;;10.36;61.19
44751;BME280;30477;48.224;11.470;2023-05-01T05:56:13;95795.31;;;10.32;61.19
44751;BME280;30477;48.224;11.470;2023-05-01T05:58:38;95783.56;;;10.38;61.19
44751;BME280;30477;48.224;11.470;2023-05-01T06:01:04;95801.00;;;10.36;60.90
44751;BME280;30477;48.224;11.470;2023-05-01T06:03:31;95799.84;;;10.48;60.98
44751;BME280;30477;48.224;11.470;2023-05-01T06:05:56;95795.78;;;10.46;60.69
44751;BME280;30477;48.224;11.470;2023-05-01T06:08:21;95792.13;;;10.39;60.70
44751;BME280;30477;48.224;11.470;2023-05-01T06:10:47;95794.38;;;10.24;60.75
44751;BME280;30477;48.224;11.470;2023-05-01T06:13:12;95792.47;;;9.98;61.02
44751;BME280;30477;48.224;11.470;2023-05-01T06:15:38;95791.09;;;10.04;61.35
44751;BME280;30477;48.224;11.470;2023-05-01T06:18:04;95792.94;;;10.11;61.53
44751;BME280;30477;48.224;11.470;2023-05-01T06:20:30;95783.94;;;10.15;61.63
44751;BME280;30477;48.224;11.470;2023-05-01T06:22:56;95785.66;;;10.25;61.83
44751;BME280;30477;48.224;11.470;2023-05-01T06:25:21;95791.25;;;10.30;61.79
44751;BME280;30477;48.224;11.470;2023-05-01T06:27:51;95791.56;;;10.17;61.47
44751;BME280;30477;48.224;11.470;2023-05-01T06:30:16;95791.03;;;10.13;61.44
44751;BME280;30477;48.224;11.470;2023-05-01T06:32:44;95784.16;;;10.32;61.51
44751;BME280;30477;48.224;11.470;2023-05-01T06:35:10;95781.50;;;10.42;61.23
44751;BME280;30477;48.224;11.470;2023-05-01T06:37:36;95787.00;;;10.56;61.19
44751;BME280;30477;48.224;11.470;2023-05-01T06:40:02;95778.00;;;10.61;61.05
44751;BME280;30477;48.224;11.470;2023-05-01T06:42:28;95776.34;;;10.60;60.85
44751;BME280;30477;48.224;11.470;2023-05-01T06:44:54;95775.31;;;10.52;61.17
44751;BME280;30477;48.224;11.470;2023-05-01T06:47:19;95783.28;;;10.77;61.29
44751;BME280;30477;48.224;11.470;2023-05-01T06:49:45;95784.56;;;10.91;60.96
44751;BME280;30477;48.224;11.470;2023-05-01T06:52:10;95785.56;;;10.98;60.61
44751;BME280;30477;48.224;11.470;2023-05-01T06:54:36;95791.22;;;11.11;60.45
44751;BME280;30477;48.224;11.470;2023-05-01T06:57:01;95790.63;;;11.17;60.50
44751;BME280;30477;48.224;11.470;2023-05-01T06:59:26;95789.94;;;10.97;59.92
44751;BME280;30477;48.224;11.470;2023-05-01T07:01:52;95792.78;;;10.86;60.12
44751;BME280;30477;48.224;11.470;2023-05-01T07:04:17;95797.38;;;10.92;60.20
44751;BME280;30477;48.224;11.470;2023-05-01T07:06:42;95783.97;;;10.97;60.33
44751;BME280;30477;48.224;11.470;2023-05-01T07:09:07;95789.75;;;11.09;60.82
44751;BME280;30477;48.224;11.470;2023-05-01T07:11:33;95790.44;;;11.19;60.41
44751;BME280;30477;48.224;11.470;2023-05-01T07:13:59;95797.63;;;11.25;60.02
44751;BME280;30477;48.224;11.470;2023-05-01T07:16:25;95792.34;;;11.35;60.21
44751;BME280;30477;48.224;11.470;2023-05-01T07:18:50;95789.00;;;11.43;59.79
44751;BME280;30477;48.224;11.470;2023-05-01T07:21:16;95790.16;;;11.48;59.58
44751;BME280;30477;48.224;11.470;2023-05-01T07:23:41;95786.69;;;11.57;59.12
44751;BME280;30477;48.224;11.470;2023-05-01T07:26:06;95790.72;;;11.60;58.69
44751;BME280;30477;48.224;11.470;2023-05-01T07:28:32;95789.81;;;11.69;59.03
44751;BME280;30477;48.224;11.470;2023-05-01T07:30:57;95779.47;;;11.77;58.45
44751;BME280;30477;48.224;11.470;2023-05-01T07:33:22;95778.28;;;11.90;58.42
44751;BME280;30477;48.224;11.470;2023-05-01T07:35:51;95784.47;;;11.97;58.59
44751;BME280;30477;48.224;11.470;2023-05-01T07:38:16;95781.97;;;11.87;58.28
44751;BME280;30477;48.224;11.470;2023-05-01T07:40:42;95784.31;;;11.98;58.01
44751;BME280;30477;48.224;11.470;2023-05-01T07:43:07;95787.56;;;12.01;57.81
44751;BME280;30477;48.224;11.470;2023-05-01T07:45:36;95791.03;;;11.83;57.48
44751;BME280;30477;48.224;11.470;2023-05-01T07:48:01;95795.31;;;11.66;58.12
44751;BME280;30477;48.224;11.470;2023-05-01T07:50:26;95787.38;;;11.68;58.32
44751;BME280;30477;48.224;11.470;2023-05-01T07:52:53;95794.50;;;11.66;58.62
44751;BME280;30477;48.224;11.470;2023-05-01T07:55:20;95799.28;;;11.78;58.42
44751;BME280;30477;48.224;11.470;2023-05-01T07:57:46;95802.34;;;11.82;57.80
44751;BME280;30477;48.224;11.470;2023-05-01T08:00:11;95799.31;;;11.87;58.12
44751;BME280;30477;48.224;11.470;2023-05-01T08:02:37;95797.66;;;11.86;58.03
44751;BME280;30477;48.224;11.470;2023-05-01T08:05:02;95798.72;;;11.93;57.90
44751;BME280;30477;48.224;11.470;2023-05-01T08:07:28;95798.94;;;11.82;57.97
44751;BME280;30477;48.224;11.470;2023-05-01T08:09:53;95811.81;;;11.65;58.28
44751;BME280;30477;48.224;11.470;2023-05-01T08:12:18;95807.53;;;11.82;58.85
44751;BME280;30477;48.224;11.470;2023-05-01T08:14:44;95806.19;;;11.96;58.25
44751;BME280;30477;48.224;11.470;2023-05-01T08:17:09;95806.81;;;11.90;58.41
44751;BME280;30477;48.224;11.470;2023-05-01T08:19:35;95808.50;;;11.99;58.25
44751;BME280;30477;48.224;11.470;2023-05-01T08:22:00;95812.78;;;12.16;57.99
44751;BME280;30477;48.224;11.470;2023-05-01T08:24:25;95810.13;;;12.08;57.37
44751;BME280;30477;48.224;11.470;2023-05-01T08:26:51;95811.25;;;11.79;57.95
44751;BME280;30477;48.224;11.470;2023-05-01T08:29:17;95816.75;;;11.76;58.49
44751;BME280;30477;48.224;11.470;2023-05-01T08:31:42;95815.81;;;11.86;58.61
44751;BME280;30477;48.224;11.470;2023-05-01T08:34:08;95820.81;;;11.79;58.35
44751;BME280;30477;48.224;11.470;2023-05-01T08:36:33;95827.38;;;11.65;58.61
44751;BME280;30477;48.224;11.470;2023-05-01T08:38:59;95824.44;;;11.42;58.18
44751;BME280;30477;48.224;11.470;2023-05-01T08:41:26;95820.94;;;11.25;58.73
44751;BME280;30477;48.224;11.470;2023-05-01T08:43:51;95822.72;;;11.25;59.14
44751;BME280;30477;48.224;11.470;2023-05-01T08:46:43;95821.31;;;11.30;59.54
44751;BME280;30477;48.224;11.470;2023-05-01T08:49:16;95822.03;;;11.41;60.14
44751;BME280;30477;48.224;11.470;2023-05-01T08:51:46;95825.28;;;11.43;60.43
44751;BME280;30477;48.224;11.470;2023-05-01T08:54:13;95831.28;;;11.43;61.22
44751;BME280;30477;48.224;11.470;2023-05-01T08:56:40;95821.72;;;11.44;61.10
44751;BME280;30477;48.224;11.470;2023-05-01T08:59:08;95832.78;;;11.28;61.45
44751;BME280;30477;48.224;11.470;2023-05-01T09:01:36;95846.41;;;11.12;62.44
44751;BME280;30477;48.224;11.470;2023-05-01T09:04:02;95837.03;;;11.11;63.30
44751;BME280;30477;48.224;11.470;2023-05-01T09:06:28;95848.06;;;11.13;63.32
44751;BME280;30477;48.224;11.470;2023-05-01T09:08:54;95849.91;;;11.03;63.97
44751;BME280;30477;48.224;11.470;2023-05-01T09:11:21;95847.00;;;11.06;64.64
44751;BME280;30477;48.224;11.470;2023-05-01T09:13:47;95850.00;;;10.83;64.86
44751;BME280;30477;48.224;11.470;2023-05-01T09:16:12;95851.78;;;10.65;66.05
44751;BME280;30477;48.224;11.470;2023-05-01T09:18:38;95852.38;;;10.59;66.67
44751;BME280;30477;48.224;11.470;2023-05-01T09:21:05;95851.84;;;10.55;67.21
44751;BME280;30477;48.224;11.470;2023-05-01T09:23:31;95851.03;;;10.54;67.94
44751;BME280;30477;48.224;11.470;2023-05-01T09:25:58;95857.34;;;10.42;68.41
44751;BME280;30477;48.224;11.470;2023-05-01T09:28:44;95861.34;;;10.27;69.56
44751;BME280;30477;48.224;11.470;2023-05-01T09:31:27;95862.59;;;10.23;70.31
44751;BME280;30477;48.224;11.470;2023-05-01T09:34:03;95863.16;;;10.16;70.66
44751;BME280;30477;48.224;11.470;2023-05-01T09:36:31;95871.06;;;10.05;71.36
44751;BME280;30477;48.224;11.470;2023-05-01T09:38:57;95861.97;;;10.01;72.13
44751;BME280;30477;48.224;11.470;2023-05-01T09:41:24;95861.06;;;9.92;72.45
44751;BME280;30477;48.224;11.470;2023-05-01T09:43:57;95867.19;;;9.91;73.17
44751;BME280;30477;48.224;11.470;2023-05-01T09:46:24;95860.50;;;9.99;73.55
44751;BME280;30477;48.224;11.470;2023-05-01T09:48:58;95865.66;;;10.08;73.63
44751;BME280;30477;48.224;11.470;2023-05-01T09:51:31;95868.13;;;10.00;73.84
44751;BME280;30477;48.224;11.470;2023-05-01T09:53:58;95870.97;;;9.97;74.13
44751;BME280;30477;48.224;11.470;2023-05-01T09:56:28;95875.44;;;10.05;74.32
44751;BME280;30477;48.224;11.470;2023-05-01T09:58:55;95872.47;;;10.00;74.74
44751;BME280;30477;48.224;11.470;2023-05-01T10:01:40;95875.97;;;10.08;74.79
44751;BME280;30477;48.224;11.470;2023-05-01T10:04:06;95874.59;;;10.14;75.51
44751;BME280;30477;48.224;11.470;2023-05-01T10:06:32;95879.47;;;10.27;75.41
44751;BME280;30477;48.224;11.470;2023-05-01T10:08:58;95871.03;;;10.25;75.65
44751;BME280;30477;48.224;11.470;2023-05-01T10:11:23;95881.66;;;10.22;74.79
44751;BME280;30477;48.224;11.470;2023-05-01T10:14:08;95875.69;;;10.11;75.07
44751;BME280;30477;48.224;11.470;2023-05-01T10:16:35;95869.97;;;10.08;75.38
44751;BME280;30477;48.224;11.470;2023-05-01T10:19:02;95876.66;;;10.10;75.45
44751;BME280;30477;48.224;11.470;2023-05-01T10:21:29;95878.38;;;10.20;75.52
44751;BME280;30477;48.224;11.470;2023-05-01T10:23:54;95878.38;;;10.20;75.68
44751;BME280;30477;48.224;11.470;2023-05-01T10:26:19;95877.28;;;10.22;75.93
44751;BME280;30477;48.224;11.470;2023-05-01T10:28:47;95879.19;;;10.30;75.56
44751;BME280;30477;48.224;11.470;2023-05-01T10:31:13;95875.13;;;10.18;75.16
44751;BME280;30477;48.224;11.470;2023-05-01T10:33:39;95877.34;;;10.12;75.78
44751;BME280;30477;48.224;11.470;2023-05-01T10:36:10;95882.63;;;10.21;75.29
44751;BME280;30477;48.224;11.470;2023-05-01T10:38:37;95874.31;;;10.17;75.58
44751;BME280;30477;48.224;11.470;2023-05-01T10:41:02;95881.06;;;10.28;76.02
44751;BME280;30477;48.224;11.470;2023-05-01T10:43:30;95876.41;;;10.41;75.57
44751;BME280;30477;48.224;11.470;2023-05-01T10:51:19;95873.72;;;10.33;75.83
44751;BME280;30477;48.224;11.470;2023-05-01T10:53:46;95874.69;;;10.32;75.92
44751;BME280;30477;48.224;11.470;2023-05-01T11:03:54;95860.63;;;10.44;76.60
44751;BME280;30477;48.224;11.470;2023-05-01T11:06:19;95860.38;;;10.38;76.09
44751;BME280;30477;48.224;11.470;2023-05-01T11:08:45;95862.53;;;10.42;76.32
44751;BME280;30477;48.224;11.470;2023-05-01T11:14:02;95854.91;;;10.41;76.10
44751;BME280;30477;48.224;11.470;2023-05-01T11:21:33;95846.19;;;10.42;76.70
44751;BME280;30477;48.224;11.470;2023-05-01T11:23:59;95840.34;;;10.40;76.76
44751;BME280;30477;48.224;11.470;2023-05-01T11:26:27;95842.06;;;10.49;77.11
44751;BME280;30477;48.224;11.470;2023-05-01T11:28:54;95848.00;;;10.59;77.11
44751;BME280;30477;48.224;11.470;2023-05-01T11:31:20;95840.69;;;10.54;77.11
44751;BME280;30477;48.224;11.470;2023-05-01T11:33:46;95833.28;;;10.60;77.52
44751;BME280;30477;48.224;11.470;2023-05-01T11:36:11;95835.69;;;10.71;77.76
44751;BME280;30477;48.224;11.470;2023-05-01T11:38:48;95833.38;;;10.68;77.77
44751;BME280;30477;48.224;11.470;2023-05-01T11:41:13;95830.69;;;10.60;77.79
44751;BME280;30477;48.224;11.470;2023-05-01T11:43:52;95822.66;;;10.63;78.17
44751;BME280;30477;48.224;11.470;2023-05-01T11:48:59;95835.78;;;10.51;78.02
44751;BME280;30477;48.224;11.470;2023-05-01T11:51:28;95832.59;;;10.57;78.38
44751;BME280;30477;48.224;11.470;2023-05-01T11:54:03;95824.19;;;10.55;78.28
44751;BME280;30477;48.224;11.470;2023-05-01T11:56:30;95836.75;;;10.50;78.07
44751;BME280;30477;48.224;11.470;2023-05-01T11:58:56;95825.66;;;10.58;78.21
44751;BME280;30477;48.224;11.470;2023-05-01T12:01:35;95833.38;;;10.68;78.00
44751;BME280;30477;48.224;11.470;2023-05-01T12:04:01;95834.72;;;10.72;78.17
44751;BME280;30477;48.224;11.470;2023-05-01T12:06:40;95828.19;;;10.68;77.96
44751;BME280;30477;48.224;11.470;2023-05-01T12:09:23;95835.50;;;10.72;78.54
44751;BME280;30477;48.224;11.470;2023-05-01T12:11:52;95838.84;;;10.83;78.80
44751;BME280;30477;48.224;11.470;2023-05-01T12:14:19;95838.78;;;10.92;78.72
44751;BME280;30477;48.224;11.470;2023-05-01T12:16:46;95829.88;;;10.77;78.38
44751;BME280;30477;48.224;11.470;2023-05-01T12:19:13;95834.03;;;10.70;78.35
44751;BME280;30477;48.224;11.470;2023-05-01T12:21:39;95837.75;;;10.85;78.45
44751;BME280;30477;48.224;11.470;2023-05-01T12:24:17;95839.28;;;10.96;78.52
44751;BME280;30477;48.224;11.470;2023-05-01T12:26:44;95843.06;;;11.02;78.50
44751;BME280;30477;48.224;11.470;2023-05-01T12:29:10;95839.53;;;11.03;78.32
44751;BME280;30477;48.224;11.470;2023-05-01T12:31:44;95837.31;;;11.08;78.52
44751;BME280;30477;48.224;11.470;2023-05-01T12:34:09;95835.81;;;11.23;78.41
44751;BME280;30477;48.224;11.470;2023-05-01T12:36:36;95837.13;;;11.27;78.78
44751;BME280;30477;48.224;11.470;2023-05-01T12:41:47;95829.16;;;11.38;78.39
44751;BME280;30477;48.224;11.470;2023-05-01T12:46:43;95826.81;;;11.53;78.09
44751;BME280;30477;48.224;11.470;2023-05-01T12:49:15;95828.59;;;11.53;78.13
44751;BME280;30477;48.224;11.470;2023-05-01T12:51:48;95830.69;;;11.49;78.09
44751;BME280;30477;48.224;11.470;2023-05-01T12:54:21;95827.09;;;11.50;78.08
44751;BME280;30477;48.224;11.470;2023-05-01T12:56:46;95828.81;;;11.42;77.75
44751;BME280;30477;48.224;11.470;2023-05-01T12:59:25;95832.03;;;11.35;78.01
44751;BME280;30477;48.224;11.470;2023-05-01T13:02:05;95833.28;;;11.49;77.71
44751;BME280;30477;48.224;11.470;2023-05-01T13:04:31;95834.66;;;11.62;77.96
44751;BME280;30477;48.224;11.470;2023-05-01T13:06:57;95837.34;;;11.78;77.50
44751;BME280;30477;48.224;11.470;2023-05-01T13:09:24;95833.44;;;11.74;77.31
44751;BME280;30477;48.224;11.470;2023-05-01T13:12:01;95836.13;;;11.64;76.78
44751;BME280;30477;48.224;11.470;2023-05-01T13:14:34;95834.84;;;11.68;77.03
44751;BME280;30477;48.224;11.470;2023-05-01T13:17:00;95823.50;;;11.69;76.75
44751;BME280;30477;48.224;11.470;2023-05-01T13:19:28;95827.25;;;11.93;77.31
44751;BME280;30477;48.224;11.470;2023-05-01T13:21:55;95820.50;;;12.08;77.25
44751;BME280;30477;48.224;11.470;2023-05-01T13:24:22;95815.69;;;12.22;77.18
44751;BME280;30477;48.224;11.470;2023-05-01T13:26:55;95817.38;;;12.31;76.78
44751;BME280;30477;48.224;11.470;2023-05-01T13:29:23;95813.19;;;12.46;76.86
44751;BME280;30477;48.224;11.470;2023-05-01T13:31:51;95826.16;;;12.38;75.95
44751;BME280;30477;48.224;11.470;2023-05-01T13:34:27;95818.47;;;12.28;75.45
44751;BME280;30477;48.224;11.470;2023-05-01T13:36:54;95823.00;;;12.26;75.57
44751;BME280;30477;48.224;11.470;2023-05-01T13:39:19;95824.00;;;12.25;74.85
44751;BME280;30477;48.224;11.470;2023-05-01T13:41:45;95828.38;;;12.25;74.88
44751;BME280;30477;48.224;11.470;2023-05-01T13:44:10;95826.34;;;12.53;75.17